Pensacola Regional Airport Pensacola US
ICAO: KPNS
IATA: PNS
Category: Medium
Scheduled Services: Yes

Elevation: 121 ft
TransAlt. 18000 ft.

Airport Communications:
APP/DEP:118.6
ATIS:121.25
CLNC DEL:123.725
CTAF:119.9
GND:121.9
GAINESVILLE RDO:122.2
TWR:119.9
UNICOM:122.95

KPNS Zoom In..

Runways:

(A) RW 08 length 7000 ft width 150 ft
LOC 110.95 / hdg 80

(B) RW 17 length 7004 ft width 150 ft
ILS 111.10 / hdg 169

(C) RW 26 length 7000 ft width 150 ft
LOC 110.95 / hdg 260

(D) RW 35 length 7004 ft width 150 ft
LOC 110.95 / hdg 349

Location; KPNS
Day. 16 / Time. 17.53 Zulu
* Altimeter: 30.04
* Temperature: 33° c. 91.4°f.
* Wind from: 010° Speed 05 kn.
Dewpoint: 23° c.
Visibility: 10 Statute Miles.
Clouds: Scattered 3900 ft.
Clouds: Scattered 12000 ft.

KPNS 161753Z 01005KT 10SM VCTS SCT039 SCT120 33/23 A3004 RMK AO2 LTG DSNT SW-NW SLP172 T03330228 10339 20256 58006


Wind From 010°
Speed 05 kn.

 
 
jpsmedia.com for Web Design worldairports.se 2018   terms of use